Time;durP1;ratioP1;P1;durP2;ratioP2;P2;SDS_P1;SDS_P2;PMS_P1;PMS_P2;Temp;Humidity;BMP_temperature;BMP_pressure;BME280_temperature;BME280_humidity;BME280_pressure;Samples;Min_cycle;Max_cycle;Signal;HPM_P1;HPM_P2
2023/09/14 12:15:29;;;;;;;64.00;14.40;;;;;;;27.37;36.80;101071.10;102954;1290;600714;-89
2023/09/14 12:18:41;;;;;;;19.60;7.80;;;;;;;27.34;36.79;101066.61;103817;1285;603467;-87
2023/09/14 12:21:27;;;;;;;22.20;7.50;;;;;;;27.34;37.03;101064.46;103383;1292;601065;-87
2023/09/14 12:23:54;;;;;;;17.30;7.20;;;;;;;27.27;36.90;101056.02;103113;1298;60499;-86
2023/09/14 12:26:21;;;;;;;22.30;6.60;;;;;;;27.25;37.12;101058.71;102639;1297;60799;-84
2023/09/14 12:28:51;;;;;;;12.40;5.90;;;;;;;27.10;36.54;101058.69;105499;1297;73074;-87
2023/09/14 12:31:19;;;;;;;15.80;6.70;;;;;;;26.88;36.75;101060.33;105590;1297;72488;-84
2023/09/14 12:33:45;;;;;;;14.60;6.30;;;;;;;26.81;37.30;101057.95;105457;1297;72352;-83
2023/09/14 12:36:11;;;;;;;17.90;7.00;;;;;;;26.78;37.32;101053.84;105540;1296;407662;-86
2023/09/14 12:38:37;;;;;;;11.50;6.50;;;;;;;26.74;37.52;101049.56;105857;1295;58258;-86
2023/09/14 12:41:05;;;;;;;18.50;7.00;;;;;;;26.64;36.95;101046.55;105820;1296;58259;-86
2023/09/14 12:43:31;;;;;;;17.30;7.30;;;;;;;26.57;37.30;101047.80;105852;1296;73630;-86
2023/09/14 12:45:57;;;;;;;20.50;8.60;;;;;;;26.48;37.65;101050.11;105813;1294;58711;-86
2023/09/14 12:48:28;;;;;;;19.40;9.10;;;;;;;26.41;37.89;101053.38;105730;1294;58217;-84
2023/09/14 12:50:56;;;;;;;18.50;8.40;;;;;;;26.33;37.97;101048.45;105907;1294;60578;-85
2023/09/14 12:53:23;;;;;;;19.40;9.00;;;;;;;26.39;37.93;101052.16;105694;1298;73687;-86
2023/09/14 12:55:49;;;;;;;23.20;8.80;;;;;;;26.40;37.99;101042.70;106018;1292;73877;-86
2023/09/14 12:58:19;;;;;;;21.70;10.00;;;;;;;26.44;38.40;101040.83;106204;1289;58184;-85
2023/09/14 13:00:48;;;;;;;20.70;9.30;;;;;;;26.46;38.52;101038.04;106414;1289;61798;-84
2023/09/14 13:03:18;;;;;;;18.60;8.70;;;;;;;26.34;38.35;101041.70;106381;1289;62854;-85
2023/09/14 13:05:44;;;;;;;16.70;8.30;;;;;;;26.20;38.65;101044.19;106483;1288;74028;-86
2023/09/14 13:08:10;;;;;;;23.30;9.40;;;;;;;26.15;38.40;101044.04;106466;1288;59291;-85
2023/09/14 13:10:38;;;;;;;20.40;9.40;;;;;;;26.13;38.60;101037.67;106485;1288;58176;-85
2023/09/14 13:13:10;;;;;;;16.00;8.80;;;;;;;26.18;38.78;101033.45;106438;1288;61127;-85
2023/09/14 13:15:40;;;;;;;21.80;9.50;;;;;;;26.16;38.40;101028.91;106470;1288;60256;-85
2023/09/14 13:18:14;;;;;;;19.80;9.20;;;;;;;26.12;38.70;101028.80;106379;1289;73877;-86
2023/09/14 13:20:48;;;;;;;18.40;8.70;;;;;;;26.12;39.04;101021.46;106267;1289;72400;-86
2023/09/14 13:23:13;;;;;;;24.90;8.80;;;;;;;26.17;39.05;101021.90;106303;1288;72588;-87
2023/09/14 13:25:41;;;;;;;19.10;8.70;;;;;;;26.18;39.02;101023.11;106648;1286;58337;-86
2023/09/14 13:28:07;;;;;;;22.50;9.60;;;;;;;26.15;39.14;101027.23;106702;1286;60359;-87
2023/09/14 13:30:34;;;;;;;26.20;11.20;;;;;;;26.16;39.20;101028.13;106489;1285;58105;-86
2023/09/14 13:33:01;;;;;;;25.30;10.90;;;;;;;26.12;39.23;101025.02;106637;1286;74292;-86
2023/09/14 13:35:28;;;;;;;23.90;7.10;;;;;;;26.00;39.30;101032.44;106642;1286;72857;-87
2023/09/14 13:37:56;;;;;;;26.40;7.10;;;;;;;25.84;39.34;101026.57;106492;1286;60032;-86
2023/09/14 13:40:23;;;;;;;23.30;7.50;;;;;;;25.77;39.54;101023.02;106670;1286;61289;-86
2023/09/14 13:42:57;;;;;;;19.10;7.30;;;;;;;25.76;40.01;101019.21;106548;1286;72955;-86
2023/09/14 13:45:23;;;;;;;18.90;6.70;;;;;;;25.76;40.34;101017.55;106491;1286;73638;-90
2023/09/14 13:47:50;;;;;;;20.40;7.10;;;;;;;25.70;40.15;101015.05;106655;1286;58447;-90
2023/09/14 13:50:20;;;;;;;23.60;7.80;;;;;;;25.71;40.59;101009.46;106477;1286;61652;-90
2023/09/14 13:52:46;;;;;;;29.80;8.40;;;;;;;25.70;40.42;101009.34;106674;1285;61024;-91
2023/09/14 13:55:12;;;;;;;23.60;7.90;;;;;;;25.58;40.32;101011.16;106470;1286;58063;-92
2023/09/14 13:57:38;;;;;;;25.40;7.50;;;;;;;25.44;40.32;101011.86;106531;1286;58235;-90
2023/09/14 14:00:10;;;;;;;21.30;7.30;;;;;;;25.36;40.66;101015.72;106618;1286;58073;-91
2023/09/14 14:02:50;;;;;;;23.00;7.70;;;;;;;25.27;40.50;101013.64;106182;1291;60064;-90
2023/09/14 14:05:16;;;;;;;18.90;7.00;;;;;;;25.18;40.79;101015.05;105627;1297;59499;-92
2023/09/14 14:07:42;;;;;;;16.10;7.00;;;;;;;25.11;40.69;101015.84;105623;1297;72546;-90
2023/09/14 14:10:08;;;;;;;23.40;6.90;;;;;;;25.03;41.07;101014.89;105627;1297;58365;-91
2023/09/14 14:12:35;;;;;;;29.40;7.80;;;;;;;24.99;41.88;101016.48;105603;1297;58120;-92
2023/09/14 14:15:01;;;;;;;19.40;6.70;;;;;;;24.92;41.58;101020.40;105604;1297;58602;-93
2023/09/14 14:17:27;;;;;;;18.30;7.40;;;;;;;24.87;41.80;101023.69;105572;1299;58667;-89
2023/09/14 14:19:54;;;;;;;17.50;6.90;;;;;;;24.82;42.05;101024.86;105357;1302;58441;-89
2023/09/14 14:22:20;;;;;;;25.20;8.20;;;;;;;24.79;42.44;101024.55;105132;1305;58620;-91
2023/09/14 14:24:46;;;;;;;25.00;6.50;;;;;;;24.74;42.18;101020.05;105274;1303;58294;-91
2023/09/14 14:27:15;;;;;;;24.80;6.30;;;;;;;24.66;41.89;101020.83;105307;1302;58200;-93
2023/09/14 14:29:43;;;;;;;20.90;7.60;;;;;;;24.58;42.05;101019.45;105307;1303;61268;-93
2023/09/14 14:32:09;;;;;;;23.20;6.40;;;;;;;24.51;42.22;101017.34;105110;1303;73815;-91
2023/09/14 14:34:37;;;;;;;18.70;6.40;;;;;;;24.43;42.48;101014.00;105520;1299;58291;-90
2023/09/14 14:37:03;;;;;;;17.50;6.80;;;;;;;24.37;42.55;101008.76;105966;1292;73571;-89
2023/09/14 14:39:50;;;;;;;26.60;8.10;;;;;;;24.30;43.06;101012.54;105692;1297;59893;-91
2023/09/14 14:42:16;;;;;;;18.00;6.20;;;;;;;24.26;43.07;101008.38;105657;1297;61201;-89
2023/09/14 14:44:42;;;;;;;33.30;7.50;;;;;;;24.21;43.21;101009.54;105636;1297;58227;-90
2023/09/14 14:47:07;;;;;;;18.90;6.50;;;;;;;24.15;43.31;101010.70;105633;1297;58495;-90
2023/09/14 14:49:36;;;;;;;22.70;7.40;;;;;;;24.10;43.48;101009.34;105552;1299;58373;-92
2023/09/14 14:52:04;;;;;;;18.00;7.10;;;;;;;24.04;43.45;101005.42;105563;1300;58508;-91
2023/09/14 14:54:30;;;;;;;20.90;5.60;;;;;;;23.99;43.60;101006.23;105420;1302;61066;-91
2023/09/14 14:56:56;;;;;;;17.70;5.60;;;;;;;23.90;43.85;101003.08;105406;1299;58326;-93
2023/09/14 15:05:48;;;;;;;24.30;7.20;;;;;;;23.64;45.21;101008.27;103585;1286;600306;-91
2023/09/14 15:08:14;;;;;;;24.30;7.30;;;;;;;23.51;45.45;101009.13;103438;1286;60435;-92
2023/09/14 15:14:34;;;;;;;40.10;8.20;;;;;;;23.27;46.27;101009.66;103137;1289;616022;-92
2023/09/14 15:17:00;;;;;;;34.00;7.70;;;;;;;23.13;46.39;101008.04;103550;1290;60495;-92
2023/09/14 15:19:31;;;;;;;33.00;7.90;;;;;;;23.03;46.38;101009.05;103855;1295;60418;-92
2023/09/14 15:22:21;;;;;;;31.90;7.80;;;;;;;22.93;46.79;101010.13;103665;1292;74295;-93
2023/09/14 15:24:46;;;;;;;29.40;7.30;;;;;;;22.81;47.04;101012.81;103298;1293;74977;-94
2023/09/14 15:27:11;;;;;;;26.30;6.30;;;;;;;22.70;47.25;101012.90;102870;1291;417901;-94
2023/09/14 15:29:57;;;;;;;24.00;6.50;;;;;;;22.62;47.49;101012.52;103840;1285;600509;-94
2023/09/14 15:32:45;;;;;;;16.20;5.80;;;;;;;22.47;47.62;101014.12;103035;1293;60797;-94
2023/09/14 15:35:29;;;;;;;16.00;6.80;;;;;;;22.34;47.80;101010.64;102988;1301;61069;-94
2023/09/14 15:38:00;;;;;;;26.00;6.50;;;;;;;22.23;48.11;101014.30;102783;1302;73154;-93
2023/09/14 15:40:45;;;;;;;18.30;6.30;;;;;;;22.15;48.34;101016.92;103052;1296;601177;-92
2023/09/14 15:43:14;;;;;;;18.00;5.80;;;;;;;22.02;48.65;101012.91;102833;1301;61307;-93
2023/09/14 15:45:57;;;;;;;17.60;5.70;;;;;;;21.92;49.20;101013.90;103973;1283;599870;-94
2023/09/14 15:51:44;;;;;;;23.50;6.80;;;;;;;21.68;49.88;101013.63;103613;1284;600818;-91
2023/09/14 15:54:15;;;;;;;23.40;7.40;;;;;;;21.53;50.21;101016.60;103635;1286;60430;-92
2023/09/14 15:56:44;;;;;;;20.80;6.80;;;;;;;21.40;50.80;101017.54;103552;1286;60302;-92
2023/09/14 15:59:26;;;;;;;19.00;6.90;;;;;;;21.31;51.16;101020.12;102726;1291;600930;-92
2023/09/14 16:01:52;;;;;;;24.20;7.10;;;;;;;21.18;51.65;101025.46;102879;1295;60668;-92
2023/09/14 16:04:18;;;;;;;21.20;6.90;;;;;;;21.07;52.04;101025.20;102795;1296;60425;-94
2023/09/14 16:07:01;;;;;;;65.30;9.60;;;;;;;20.99;52.68;101027.30;103635;1286;601061;-92
2023/09/14 16:12:46;;;;;;;26.70;7.80;;;;;;;20.77;54.86;101029.79;103740;1283;600583;-93
2023/09/14 16:15:12;;;;;;;43.50;9.00;;;;;;;20.65;55.33;101036.33;103380;1291;60457;-93
2023/09/14 16:17:37;;;;;;;32.80;8.40;;;;;;;20.54;55.63;101041.79;103193;1286;60415;-93
2023/09/14 16:20:21;;;;;;;30.90;8.70;;;;;;;20.42;56.43;101039.02;103813;1283;600495;-93
2023/09/14 16:23:07;;;;;;;34.20;8.80;;;;;;;20.33;57.49;101042.70;103349;1292;60336;-94
2023/09/14 16:26:12;;;;;;;31.50;9.00;;;;;;;20.22;59.17;101038.79;103110;1290;60370;-92
